MDT,Max TemperatureF,Mean TemperatureF,Min TemperatureF,Max Dew PointF,MeanDew PointF,Min DewpointF,Max Humidity, Mean Humidity, Min Humidity, Max Sea Level PressureIn, Mean Sea Level PressureIn, Min Sea Level PressureIn, Max VisibilityMiles, Mean VisibilityMiles, Min VisibilityMiles, Max Wind SpeedMPH, Mean Wind SpeedMPH, Max Gust SpeedMPH,PrecipitationIn, CloudCover, Events, WindDirDegrees
2013-5-1,55,43,30,37,31,22,92,61,30,30.59,30.25,29.67,10,4,0,37,20,46,0.04,8,Fog-Rain-Snow,19
2013-5-2,52,39,25,29,20,7,85,51,16,30.71,30.59,30.47,10,10,3,22,12,30,T,5,Snow,357
2013-5-3,69,46,23,26,20,13,75,44,12,30.44,30.18,29.99,10,10,10,22,8,29,0.00,0,,275
2013-5-4,67,46,24,23,17,8,75,44,12,30.17,30.08,30.02,10,10,10,22,8,29,0.00,0,,48
2013-5-5,62,44,26,21,16,10,55,36,17,30.22,30.14,30.05,10,10,10,14,4,17,0.00,0,,129
2013-5-6,78,55,32,45,29,18,66,39,12,30.08,29.96,29.85,10,10,10,36,14,43,0.00,4,,156
2013-5-7,82,67,51,44,35,24,66,40,13,29.85,29.76,29.66,10,10,6,35,12,41,T,3,Rain,261
2013-5-8,76,59,41,48,44,37,93,63,33,30.02,29.85,29.75,10,10,4,29,9,38,T,3,Rain-Thunderstorm,7
2013-5-9,64,54,43,47,43,40,92,69,46,30.10,30.02,29.91,10,10,10,18,7,22,T,4,Rain,349
2013-5-10,71,54,37,47,41,29,100,61,22,30.16,30.12,30.07,10,10,7,29,5,36,0.00,2,,305
2013-5-11,71,57,42,47,40,35,89,59,28,30.32,30.23,30.14,10,10,10,36,8,44,T,1,Rain,90
2013-5-12,85,65,45,44,35,25,77,45,12,30.17,30.03,29.96,10,10,10,21,10,26,0.00,0,,279
2013-5-13,94,70,46,35,31,27,58,34,9,30.00,29.92,29.83,10,10,10,17,6,20,0.00,0,,251
2013-5-14,97,76,54,42,32,21,47,27,7,29.82,29.73,29.61,10,10,10,23,10,30,0.00,0,,224
2013-5-15,94,77,59,49,40,28,53,32,11,29.77,29.67,29.61,10,10,10,28,10,32,0.00,1,,337
2013-5-16,92,75,57,54,46,40,72,44,16,29.73,29.66,29.56,10,10,10,26,12,35,0.00,1,,146
2013-5-17,95,78,61,58,48,24,84,46,8,29.86,29.66,29.55,10,10,8,33,13,45,0.00,1,,147
2013-5-18,94,73,51,58,25,11,73,39,5,29.65,29.56,29.44,10,10,10,29,11,36,0.00,0,,256
2013-5-19,82,67,51,49,41,25,77,45,13,29.70,29.62,29.53,10,10,9,32,10,40,0.05,2,Rain-Thunderstorm,354
2013-5-20,75,59,42,43,40,33,83,54,25,29.90,29.78,29.68,10,10,8,30,10,35,0.01,3,Rain-Thunderstorm,340
2013-5-21,78,61,44,43,33,26,83,49,15,30.00,29.85,29.73,10,10,10,24,11,37,0.00,2,,341
2013-5-22,86,63,39,41,35,29,70,42,13,29.88,29.80,29.69,10,10,10,25,10,32,0.00,0,,121
2013-5-23,70,60,49,53,47,42,80,64,47,30.16,30.01,29.83,10,10,8,23,16,29,0.00,6,,99
2013-5-24,97,78,59,55,46,34,87,51,14,30.09,29.86,29.70,10,7,1,49,23,63,0.00,3,,171
2013-5-25,100,84,67,52,40,15,53,29,5,29.95,29.73,29.56,10,9,3,40,17,56,0.00,0,Thunderstorm,206
2013-5-26,100,80,60,49,28,7,60,32,4,29.71,29.62,29.52,10,10,10,22,10,26,0.00,0,,190
2013-5-27,92,75,58,58,40,9,78,44,9,29.63,29.54,29.46,10,10,7,23,11,31,0.00,1,,40
2013-5-28,96,75,54,55,44,2,86,45,3,29.77,29.51,29.31,10,8,1,39,13,52,0.00,3,,137
2013-5-29,89,71,53,57,44,26,73,42,11,29.55,29.37,29.24,10,9,4,39,17,48,0.00,0,,244
2013-5-30,87,68,49,43,24,4,71,38,4,29.67,29.54,29.46,10,10,6,36,13,47,0.00,0,,278
2013-5-31,88,65,41,26,17,9,36,21,6,29.83,29.71,29.62,10,10,8,25,9,32,0.00,0,,299